sensor_id;sensor_type;location;lat;lon;timestamp;temperature;humidity
32728;DHT22;55292;51.844;19.246;2022-11-09T00:01:44;6.10;99.90
32728;DHT22;55292;51.844;19.246;2022-11-09T00:06:46;6.10;99.90
32728;DHT22;55292;51.844;19.246;2022-11-09T00:11:49;6.10;99.90
32728;DHT22;55292;51.844;19.246;2022-11-09T00:16:51;5.90;99.90
32728;DHT22;55292;51.844;19.246;2022-11-09T00:21:54;6.00;99.90
32728;DHT22;55292;51.844;19.246;2022-11-09T00:26:56;6.00;99.90
32728;DHT22;55292;51.844;19.246;2022-11-09T00:32:02;6.00;99.90
32728;DHT22;55292;51.844;19.246;2022-11-09T00:37:05;6.00;99.90
32728;DHT22;55292;51.844;19.246;2022-11-09T00:42:08;6.00;99.90
32728;DHT22;55292;51.844;19.246;2022-11-09T00:47:10;6.10;99.90
32728;DHT22;55292;51.844;19.246;2022-11-09T00:52:13;6.10;99.90
32728;DHT22;55292;51.844;19.246;2022-11-09T00:57:16;6.30;99.90
32728;DHT22;55292;51.844;19.246;2022-11-09T01:02:20;6.50;99.90
32728;DHT22;55292;51.844;19.246;2022-11-09T01:07:23;6.70;99.90
32728;DHT22;55292;51.844;19.246;2022-11-09T01:12:26;6.80;99.90
32728;DHT22;55292;51.844;19.246;2022-11-09T01:17:29;6.90;99.90
32728;DHT22;55292;51.844;19.246;2022-11-09T01:22:31;6.90;99.90
32728;DHT22;55292;51.844;19.246;2022-11-09T01:27:34;7.00;99.90
32728;DHT22;55292;51.844;19.246;2022-11-09T01:32:39;6.90;99.90
32728;DHT22;55292;51.844;19.246;2022-11-09T01:37:42;6.80;99.90
32728;DHT22;55292;51.844;19.246;2022-11-09T01:42:45;6.80;99.90
32728;DHT22;55292;51.844;19.246;2022-11-09T01:53:51;6.50;99.90
32728;DHT22;55292;51.844;19.246;2022-11-09T01:58:59;6.40;99.90
32728;DHT22;55292;51.844;19.246;2022-11-09T02:04:26;6.30;99.90
32728;DHT22;55292;51.844;19.246;2022-11-09T02:09:42;6.30;99.90
32728;DHT22;55292;51.844;19.246;2022-11-09T02:14:49;6.20;99.90
32728;DHT22;55292;51.844;19.246;2022-11-09T02:19:56;6.20;99.90
32728;DHT22;55292;51.844;19.246;2022-11-09T02:24:59;6.20;99.90
32728;DHT22;55292;51.844;19.246;2022-11-09T02:30:03;6.20;99.90
32728;DHT22;55292;51.844;19.246;2022-11-09T02:35:06;6.30;99.90
32728;DHT22;55292;51.844;19.246;2022-11-09T02:40:15;6.30;99.90
32728;DHT22;55292;51.844;19.246;2022-11-09T02:45:19;6.20;99.90
32728;DHT22;55292;51.844;19.246;2022-11-09T02:50:22;6.20;99.90
32728;DHT22;55292;51.844;19.246;2022-11-09T02:55:25;6.20;99.90
32728;DHT22;55292;51.844;19.246;2022-11-09T03:00:28;6.20;99.90
32728;DHT22;55292;51.844;19.246;2022-11-09T03:05:31;6.20;99.90
32728;DHT22;55292;51.844;19.246;2022-11-09T03:10:34;6.40;99.90
32728;DHT22;55292;51.844;19.246;2022-11-09T03:15:37;6.50;99.90
32728;DHT22;55292;51.844;19.246;2022-11-09T03:20:42;6.50;99.90
32728;DHT22;55292;51.844;19.246;2022-11-09T03:25:45;6.60;99.90
32728;DHT22;55292;51.844;19.246;2022-11-09T03:30:48;6.50;99.90
32728;DHT22;55292;51.844;19.246;2022-11-09T03:35:51;6.60;99.90
32728;DHT22;55292;51.844;19.246;2022-11-09T03:40:54;6.50;99.90
32728;DHT22;55292;51.844;19.246;2022-11-09T03:45:57;6.50;99.90
32728;DHT22;55292;51.844;19.246;2022-11-09T03:51:00;6.40;99.90
32728;DHT22;55292;51.844;19.246;2022-11-09T03:56:02;6.30;99.90
32728;DHT22;55292;51.844;19.246;2022-11-09T04:01:05;6.20;99.90
32728;DHT22;55292;51.844;19.246;2022-11-09T04:06:08;6.30;99.90
32728;DHT22;55292;51.844;19.246;2022-11-09T04:11:10;6.30;99.90
32728;DHT22;55292;51.844;19.246;2022-11-09T04:16:13;6.30;99.90
32728;DHT22;55292;51.844;19.246;2022-11-09T04:21:15;6.20;99.90
32728;DHT22;55292;51.844;19.246;2022-11-09T04:26:26;6.20;99.90
32728;DHT22;55292;51.844;19.246;2022-11-09T04:31:28;6.20;99.90
32728;DHT22;55292;51.844;19.246;2022-11-09T04:36:31;6.10;99.90
32728;DHT22;55292;51.844;19.246;2022-11-09T04:41:34;6.10;99.90
32728;DHT22;55292;51.844;19.246;2022-11-09T04:46:36;6.10;99.90
32728;DHT22;55292;51.844;19.246;2022-11-09T04:51:39;6.10;99.90
32728;DHT22;55292;51.844;19.246;2022-11-09T04:56:41;6.20;99.90
32728;DHT22;55292;51.844;19.246;2022-11-09T05:01:44;6.40;99.90
32728;DHT22;55292;51.844;19.246;2022-11-09T05:06:47;6.40;99.90
32728;DHT22;55292;51.844;19.246;2022-11-09T05:11:50;6.30;99.90
32728;DHT22;55292;51.844;19.246;2022-11-09T05:16:53;6.40;99.90
32728;DHT22;55292;51.844;19.246;2022-11-09T05:21:55;6.60;99.90
32728;DHT22;55292;51.844;19.246;2022-11-09T05:27:18;6.60;99.90
32728;DHT22;55292;51.844;19.246;2022-11-09T05:32:21;6.60;99.90
32728;DHT22;55292;51.844;19.246;2022-11-09T05:37:23;6.70;99.90
32728;DHT22;55292;51.844;19.246;2022-11-09T05:42:26;6.70;99.90
32728;DHT22;55292;51.844;19.246;2022-11-09T05:47:29;6.90;99.90
32728;DHT22;55292;51.844;19.246;2022-11-09T05:52:31;7.10;99.90
32728;DHT22;55292;51.844;19.246;2022-11-09T05:57:34;7.30;99.90
32728;DHT22;55292;51.844;19.246;2022-11-09T06:02:37;7.30;99.90
32728;DHT22;55292;51.844;19.246;2022-11-09T06:07:39;7.50;99.90
32728;DHT22;55292;51.844;19.246;2022-11-09T06:12:42;7.60;99.90
32728;DHT22;55292;51.844;19.246;2022-11-09T06:17:50;7.70;99.90
32728;DHT22;55292;51.844;19.246;2022-11-09T06:22:58;7.70;99.90
32728;DHT22;55292;51.844;19.246;2022-11-09T06:28:05;7.90;99.90
32728;DHT22;55292;51.844;19.246;2022-11-09T06:33:07;8.10;99.90
32728;DHT22;55292;51.844;19.246;2022-11-09T06:38:10;8.20;99.90
32728;DHT22;55292;51.844;19.246;2022-11-09T06:43:13;8.40;99.90
32728;DHT22;55292;51.844;19.246;2022-11-09T06:48:15;8.50;99.90
32728;DHT22;55292;51.844;19.246;2022-11-09T06:53:18;8.60;99.90
32728;DHT22;55292;51.844;19.246;2022-11-09T06:58:21;8.70;99.90
32728;DHT22;55292;51.844;19.246;2022-11-09T07:03:24;8.80;99.90
32728;DHT22;55292;51.844;19.246;2022-11-09T07:08:27;8.90;99.90
32728;DHT22;55292;51.844;19.246;2022-11-09T07:13:30;8.90;99.90
32728;DHT22;55292;51.844;19.246;2022-11-09T07:18:33;9.00;99.90
32728;DHT22;55292;51.844;19.246;2022-11-09T07:23:35;9.10;99.90
32728;DHT22;55292;51.844;19.246;2022-11-09T07:28:38;9.30;99.90
32728;DHT22;55292;51.844;19.246;2022-11-09T07:33:41;9.40;99.90
32728;DHT22;55292;51.844;19.246;2022-11-09T07:38:43;9.50;99.90
32728;DHT22;55292;51.844;19.246;2022-11-09T07:43:46;9.60;99.90
32728;DHT22;55292;51.844;19.246;2022-11-09T07:48:49;9.80;99.90
32728;DHT22;55292;51.844;19.246;2022-11-09T07:53:51;10.00;99.90
32728;DHT22;55292;51.844;19.246;2022-11-09T07:58:54;10.20;99.90
32728;DHT22;55292;51.844;19.246;2022-11-09T08:03:56;10.20;99.90
32728;DHT22;55292;51.844;19.246;2022-11-09T08:08:59;10.20;99.90
32728;DHT22;55292;51.844;19.246;2022-11-09T08:14:02;10.20;99.90
32728;DHT22;55292;51.844;19.246;2022-11-09T08:19:04;10.20;99.90
32728;DHT22;55292;51.844;19.246;2022-11-09T08:24:10;10.30;99.90
32728;DHT22;55292;51.844;19.246;2022-11-09T08:29:12;10.30;99.90
32728;DHT22;55292;51.844;19.246;2022-11-09T08:34:16;10.30;99.90
32728;DHT22;55292;51.844;19.246;2022-11-09T08:39:19;10.20;99.90
32728;DHT22;55292;51.844;19.246;2022-11-09T08:44:24;10.20;99.90
32728;DHT22;55292;51.844;19.246;2022-11-09T08:49:27;10.20;99.90
32728;DHT22;55292;51.844;19.246;2022-11-09T08:54:29;10.30;99.90
32728;DHT22;55292;51.844;19.246;2022-11-09T08:59:32;10.50;99.90
32728;DHT22;55292;51.844;19.246;2022-11-09T09:04:35;10.70;99.90
32728;DHT22;55292;51.844;19.246;2022-11-09T09:09:38;10.80;99.90
32728;DHT22;55292;51.844;19.246;2022-11-09T09:14:41;10.90;99.90
32728;DHT22;55292;51.844;19.246;2022-11-09T09:19:44;11.10;99.90
32728;DHT22;55292;51.844;19.246;2022-11-09T09:24:51;11.40;99.90
32728;DHT22;55292;51.844;19.246;2022-11-09T09:29:54;11.50;99.90
32728;DHT22;55292;51.844;19.246;2022-11-09T09:34:57;11.60;99.90
32728;DHT22;55292;51.844;19.246;2022-11-09T09:40:02;11.70;99.90
32728;DHT22;55292;51.844;19.246;2022-11-09T09:45:22;11.80;99.90
32728;DHT22;55292;51.844;19.246;2022-11-09T09:50:30;11.80;99.90
32728;DHT22;55292;51.844;19.246;2022-11-09T10:00:39;12.00;99.90
32728;DHT22;55292;51.844;19.246;2022-11-09T10:22:07;12.20;99.90
32728;DHT22;55292;51.844;19.246;2022-11-09T10:27:34;12.40;99.90
32728;DHT22;55292;51.844;19.246;2022-11-09T10:32:37;12.70;99.90
32728;DHT22;55292;51.844;19.246;2022-11-09T10:37:42;12.90;99.90
32728;DHT22;55292;51.844;19.246;2022-11-09T10:42:54;13.10;99.90
32728;DHT22;55292;51.844;19.246;2022-11-09T10:48:29;13.00;99.90
32728;DHT22;55292;51.844;19.246;2022-11-09T11:10:27;13.40;99.90
32728;DHT22;55292;51.844;19.246;2022-11-09T11:15:48;13.30;99.90
32728;DHT22;55292;51.844;19.246;2022-11-09T11:21:21;13.20;99.90
32728;DHT22;55292;51.844;19.246;2022-11-09T11:26:59;13.20;99.90
32728;DHT22;55292;51.844;19.246;2022-11-09T11:32:29;13.20;99.90
32728;DHT22;55292;51.844;19.246;2022-11-09T11:44:11;13.10;99.90
32728;DHT22;55292;51.844;19.246;2022-11-09T11:55:49;13.00;99.90
32728;DHT22;55292;51.844;19.246;2022-11-09T12:25:19;12.70;99.90
32728;DHT22;55292;51.844;19.246;2022-11-09T12:30:15;12.50;99.90
32728;DHT22;55292;51.844;19.246;2022-11-09T12:35:38;10.50;99.90
32728;DHT22;55292;51.844;19.246;2022-11-09T12:41:09;12.40;99.90
32728;DHT22;55292;51.844;19.246;2022-11-09T12:46:37;12.70;99.90
32728;DHT22;55292;51.844;19.246;2022-11-09T12:52:00;13.00;99.90
32728;DHT22;55292;51.844;19.246;2022-11-09T12:57:28;13.10;99.90
32728;DHT22;55292;51.844;19.246;2022-11-09T13:02:55;13.00;99.90
32728;DHT22;55292;51.844;19.246;2022-11-09T13:08:27;12.90;99.90
32728;DHT22;55292;51.844;19.246;2022-11-09T13:25:12;12.70;99.90
32728;DHT22;55292;51.844;19.246;2022-11-09T13:30:44;12.70;99.90
32728;DHT22;55292;51.844;19.246;2022-11-09T13:46:52;12.60;99.90
32728;DHT22;55292;51.844;19.246;2022-11-09T14:03:32;12.00;99.90
32728;DHT22;55292;51.844;19.246;2022-11-09T14:08:55;11.90;99.90
32728;DHT22;55292;51.844;19.246;2022-11-09T14:25:38;11.30;99.90
32728;DHT22;55292;51.844;19.246;2022-11-09T14:30:59;11.10;99.90
32728;DHT22;55292;51.844;19.246;2022-11-09T14:36:21;10.90;99.90
32728;DHT22;55292;51.844;19.246;2022-11-09T14:41:43;10.80;99.90
32728;DHT22;55292;51.844;19.246;2022-11-09T14:47:09;10.70;99.90
32728;DHT22;55292;51.844;19.246;2022-11-09T14:52:33;10.40;99.90
32728;DHT22;55292;51.844;19.246;2022-11-09T14:57:54;10.10;99.90
32728;DHT22;55292;51.844;19.246;2022-11-09T15:03:27;10.10;99.90
32728;DHT22;55292;51.844;19.246;2022-11-09T15:08:54;9.90;99.90
32728;DHT22;55292;51.844;19.246;2022-11-09T15:19:53;9.80;99.90
32728;DHT22;55292;51.844;19.246;2022-11-09T15:30:42;9.50;99.90
32728;DHT22;55292;51.844;19.246;2022-11-09T15:36:32;9.30;99.90
32728;DHT22;55292;51.844;19.246;2022-11-09T15:41:53;9.00;99.90
32728;DHT22;55292;51.844;19.246;2022-11-09T15:47:32;9.00;99.90
32728;DHT22;55292;51.844;19.246;2022-11-09T15:52:54;8.90;99.90
32728;DHT22;55292;51.844;19.246;2022-11-09T15:58:16;8.70;99.90
32728;DHT22;55292;51.844;19.246;2022-11-09T16:03:38;8.50;99.90
32728;DHT22;55292;51.844;19.246;2022-11-09T16:08:59;8.20;99.90
32728;DHT22;55292;51.844;19.246;2022-11-09T16:14:20;8.00;99.90
32728;DHT22;55292;51.844;19.246;2022-11-09T16:19:42;8.30;99.90
32728;DHT22;55292;51.844;19.246;2022-11-09T16:25:03;8.60;99.90
32728;DHT22;55292;51.844;19.246;2022-11-09T16:30:24;8.80;99.90
32728;DHT22;55292;51.844;19.246;2022-11-09T16:35:45;8.70;99.90
32728;DHT22;55292;51.844;19.246;2022-11-09T16:41:06;8.60;99.90
32728;DHT22;55292;51.844;19.246;2022-11-09T16:46:27;8.70;99.90
32728;DHT22;55292;51.844;19.246;2022-11-09T16:51:49;8.50;99.90
32728;DHT22;55292;51.844;19.246;2022-11-09T16:57:10;8.50;99.90
32728;DHT22;55292;51.844;19.246;2022-11-09T17:02:31;8.40;99.90
32728;DHT22;55292;51.844;19.246;2022-11-09T17:07:53;8.40;99.90
32728;DHT22;55292;51.844;19.246;2022-11-09T17:13:14;8.40;99.90
32728;DHT22;55292;51.844;19.246;2022-11-09T17:18:36;8.50;99.90
32728;DHT22;55292;51.844;19.246;2022-11-09T17:23:58;8.50;99.90
32728;DHT22;55292;51.844;19.246;2022-11-09T17:29:21;8.60;99.90
32728;DHT22;55292;51.844;19.246;2022-11-09T17:34:42;8.60;99.90
32728;DHT22;55292;51.844;19.246;2022-11-09T17:40:04;8.60;99.90
32728;DHT22;55292;51.844;19.246;2022-11-09T17:45:25;8.70;99.90
32728;DHT22;55292;51.844;19.246;2022-11-09T17:50:46;8.80;99.90
32728;DHT22;55292;51.844;19.246;2022-11-09T17:56:07;8.80;99.90
32728;DHT22;55292;51.844;19.246;2022-11-09T18:01:29;8.70;99.90
32728;DHT22;55292;51.844;19.246;2022-11-09T18:06:55;8.90;99.90
32728;DHT22;55292;51.844;19.246;2022-11-09T18:12:16;9.00;99.90
32728;DHT22;55292;51.844;19.246;2022-11-09T18:17:37;8.90;99.90
32728;DHT22;55292;51.844;19.246;2022-11-09T18:22:58;9.00;99.90
32728;DHT22;55292;51.844;19.246;2022-11-09T18:28:19;8.90;99.90
32728;DHT22;55292;51.844;19.246;2022-11-09T18:33:41;8.70;99.90
32728;DHT22;55292;51.844;19.246;2022-11-09T18:39:02;8.60;99.90
32728;DHT22;55292;51.844;19.246;2022-11-09T18:44:25;8.50;99.90
32728;DHT22;55292;51.844;19.246;2022-11-09T18:49:47;8.30;99.90
32728;DHT22;55292;51.844;19.246;2022-11-09T18:55:08;8.20;99.90
32728;DHT22;55292;51.844;19.246;2022-11-09T19:00:29;8.00;99.90
32728;DHT22;55292;51.844;19.246;2022-11-09T19:05:51;8.00;99.90
32728;DHT22;55292;51.844;19.246;2022-11-09T19:11:13;8.10;99.90
32728;DHT22;55292;51.844;19.246;2022-11-09T19:16:34;8.10;99.90
32728;DHT22;55292;51.844;19.246;2022-11-09T19:21:56;8.20;99.90
32728;DHT22;55292;51.844;19.246;2022-11-09T19:27:17;8.20;99.90
32728;DHT22;55292;51.844;19.246;2022-11-09T19:32:38;8.30;99.90
32728;DHT22;55292;51.844;19.246;2022-11-09T19:37:59;8.40;99.90
32728;DHT22;55292;51.844;19.246;2022-11-09T19:43:26;8.40;99.90
32728;DHT22;55292;51.844;19.246;2022-11-09T19:48:47;8.40;99.90
32728;DHT22;55292;51.844;19.246;2022-11-09T19:54:10;8.40;99.90
32728;DHT22;55292;51.844;19.246;2022-11-09T19:59:31;8.30;99.90
32728;DHT22;55292;51.844;19.246;2022-11-09T20:04:53;9.10;99.90
32728;DHT22;55292;51.844;19.246;2022-11-09T20:10:15;7.80;99.90
32728;DHT22;55292;51.844;19.246;2022-11-09T20:15:36;7.60;99.90
32728;DHT22;55292;51.844;19.246;2022-11-09T20:20:57;7.60;99.90
32728;DHT22;55292;51.844;19.246;2022-11-09T20:26:19;7.50;99.90
32728;DHT22;55292;51.844;19.246;2022-11-09T20:31:40;7.40;99.90
32728;DHT22;55292;51.844;19.246;2022-11-09T20:37:01;7.30;99.90
32728;DHT22;55292;51.844;19.246;2022-11-09T20:42:23;7.10;99.90
32728;DHT22;55292;51.844;19.246;2022-11-09T20:47:44;7.00;99.90
32728;DHT22;55292;51.844;19.246;2022-11-09T20:53:25;6.90;99.90
32728;DHT22;55292;51.844;19.246;2022-11-09T20:58:46;6.70;99.90
32728;DHT22;55292;51.844;19.246;2022-11-09T21:04:07;6.60;99.90
32728;DHT22;55292;51.844;19.246;2022-11-09T21:09:29;6.60;99.90
32728;DHT22;55292;51.844;19.246;2022-11-09T21:14:50;6.70;99.90
32728;DHT22;55292;51.844;19.246;2022-11-09T21:20:12;6.80;99.90
32728;DHT22;55292;51.844;19.246;2022-11-09T21:25:35;6.90;99.90
32728;DHT22;55292;51.844;19.246;2022-11-09T21:31:15;6.90;99.90
32728;DHT22;55292;51.844;19.246;2022-11-09T21:36:36;7.00;99.90
32728;DHT22;55292;51.844;19.246;2022-11-09T21:41:57;7.10;99.90
32728;DHT22;55292;51.844;19.246;2022-11-09T21:47:18;7.20;99.90
32728;DHT22;55292;51.844;19.246;2022-11-09T21:52:39;7.20;99.90
32728;DHT22;55292;51.844;19.246;2022-11-09T21:58:00;7.30;99.90
32728;DHT22;55292;51.844;19.246;2022-11-09T22:03:21;7.20;99.90
32728;DHT22;55292;51.844;19.246;2022-11-09T22:08:43;7.20;99.90
32728;DHT22;55292;51.844;19.246;2022-11-09T22:14:08;7.20;99.90
32728;DHT22;55292;51.844;19.246;2022-11-09T22:19:49;7.20;99.90
32728;DHT22;55292;51.844;19.246;2022-11-09T22:25:28;7.30;99.90
32728;DHT22;55292;51.844;19.246;2022-11-09T22:30:50;7.30;99.90
32728;DHT22;55292;51.844;19.246;2022-11-09T22:36:11;7.30;99.90
32728;DHT22;55292;51.844;19.246;2022-11-09T22:41:33;7.10;99.90
32728;DHT22;55292;51.844;19.246;2022-11-09T22:46:54;7.10;99.90
32728;DHT22;55292;51.844;19.246;2022-11-09T22:52:15;7.00;99.90
32728;DHT22;55292;51.844;19.246;2022-11-09T22:57:38;6.90;99.90
32728;DHT22;55292;51.844;19.246;2022-11-09T23:02:59;6.80;99.90
32728;DHT22;55292;51.844;19.246;2022-11-09T23:08:20;6.80;99.90
32728;DHT22;55292;51.844;19.246;2022-11-09T23:13:41;6.90;99.90
32728;DHT22;55292;51.844;19.246;2022-11-09T23:19:03;6.90;99.90
32728;DHT22;55292;51.844;19.246;2022-11-09T23:24:25;7.00;99.90
32728;DHT22;55292;51.844;19.246;2022-11-09T23:30:04;7.10;99.90
32728;DHT22;55292;51.844;19.246;2022-11-09T23:35:26;7.10;99.90
32728;DHT22;55292;51.844;19.246;2022-11-09T23:40:48;6.90;99.90
32728;DHT22;55292;51.844;19.246;2022-11-09T23:46:12;6.90;99.90
32728;DHT22;55292;51.844;19.246;2022-11-09T23:51:33;6.80;99.90
32728;DHT22;55292;51.844;19.246;2022-11-09T23:56:54;6.90;99.90
